sensor_id;sensor_type;location;lat;lon;timestamp;P1;durP1;ratioP1;P2;durP2;ratioP2
16640;SDS011;8434;47.990;7.880;2023-08-07T00:00:45;2.80;;;1.50;;
16640;SDS011;8434;47.990;7.880;2023-08-07T00:03:31;2.47;;;1.60;;
16640;SDS011;8434;47.990;7.880;2023-08-07T00:06:18;1.57;;;1.20;;
16640;SDS011;8434;47.990;7.880;2023-08-07T00:09:03;1.70;;;1.20;;
16640;SDS011;8434;47.990;7.880;2023-08-07T00:11:49;1.93;;;1.47;;
16640;SDS011;8434;47.990;7.880;2023-08-07T00:14:34;2.43;;;1.07;;
16640;SDS011;8434;47.990;7.880;2023-08-07T00:17:20;3.20;;;1.20;;
16640;SDS011;8434;47.990;7.880;2023-08-07T00:20:06;2.83;;;1.17;;
16640;SDS011;8434;47.990;7.880;2023-08-07T00:22:53;2.57;;;1.20;;
16640;SDS011;8434;47.990;7.880;2023-08-07T00:25:38;1.63;;;1.30;;
16640;SDS011;8434;47.990;7.880;2023-08-07T00:28:23;2.00;;;1.27;;
16640;SDS011;8434;47.990;7.880;2023-08-07T00:31:09;3.70;;;1.10;;
16640;SDS011;8434;47.990;7.880;2023-08-07T00:33:54;2.43;;;1.37;;
16640;SDS011;8434;47.990;7.880;2023-08-07T00:36:40;1.47;;;1.10;;
16640;SDS011;8434;47.990;7.880;2023-08-07T00:39:27;3.10;;;0.90;;
16640;SDS011;8434;47.990;7.880;2023-08-07T00:42:12;2.63;;;1.00;;
16640;SDS011;8434;47.990;7.880;2023-08-07T00:44:58;5.10;;;1.60;;
16640;SDS011;8434;47.990;7.880;2023-08-07T00:47:45;1.50;;;1.17;;
16640;SDS011;8434;47.990;7.880;2023-08-07T00:50:31;3.17;;;1.40;;
16640;SDS011;8434;47.990;7.880;2023-08-07T00:53:17;4.97;;;1.40;;
16640;SDS011;8434;47.990;7.880;2023-08-07T00:56:04;2.00;;;1.10;;
16640;SDS011;8434;47.990;7.880;2023-08-07T00:58:50;2.43;;;1.70;;
16640;SDS011;8434;47.990;7.880;2023-08-07T01:01:35;2.37;;;1.37;;
16640;SDS011;8434;47.990;7.880;2023-08-07T01:04:21;2.73;;;1.27;;
16640;SDS011;8434;47.990;7.880;2023-08-07T01:07:07;3.50;;;1.10;;
16640;SDS011;8434;47.990;7.880;2023-08-07T01:09:54;3.07;;;1.20;;
16640;SDS011;8434;47.990;7.880;2023-08-07T01:12:45;4.87;;;1.50;;
16640;SDS011;8434;47.990;7.880;2023-08-07T01:15:32;1.83;;;1.00;;
16640;SDS011;8434;47.990;7.880;2023-08-07T01:18:18;1.50;;;1.23;;
16640;SDS011;8434;47.990;7.880;2023-08-07T01:21:04;1.77;;;1.10;;
16640;SDS011;8434;47.990;7.880;2023-08-07T01:23:51;1.90;;;1.27;;
16640;SDS011;8434;47.990;7.880;2023-08-07T01:26:39;1.43;;;1.20;;
16640;SDS011;8434;47.990;7.880;2023-08-07T01:29:26;2.87;;;1.40;;
16640;SDS011;8434;47.990;7.880;2023-08-07T01:32:14;3.33;;;1.00;;
16640;SDS011;8434;47.990;7.880;2023-08-07T01:35:02;4.33;;;1.47;;
16640;SDS011;8434;47.990;7.880;2023-08-07T01:37:47;2.40;;;1.50;;
16640;SDS011;8434;47.990;7.880;2023-08-07T01:40:35;4.67;;;1.37;;
16640;SDS011;8434;47.990;7.880;2023-08-07T01:43:21;1.43;;;1.20;;
16640;SDS011;8434;47.990;7.880;2023-08-07T01:46:06;5.97;;;1.57;;
16640;SDS011;8434;47.990;7.880;2023-08-07T01:48:52;1.80;;;1.40;;
16640;SDS011;8434;47.990;7.880;2023-08-07T01:51:37;1.77;;;1.33;;
16640;SDS011;8434;47.990;7.880;2023-08-07T01:54:22;2.43;;;1.40;;
16640;SDS011;8434;47.990;7.880;2023-08-07T01:57:09;7.43;;;1.60;;
16640;SDS011;8434;47.990;7.880;2023-08-07T01:59:54;4.03;;;1.50;;
16640;SDS011;8434;47.990;7.880;2023-08-07T02:02:40;2.80;;;1.77;;
16640;SDS011;8434;47.990;7.880;2023-08-07T02:05:26;3.53;;;1.47;;
16640;SDS011;8434;47.990;7.880;2023-08-07T02:08:11;2.97;;;1.40;;
16640;SDS011;8434;47.990;7.880;2023-08-07T02:10:57;2.10;;;1.50;;
16640;SDS011;8434;47.990;7.880;2023-08-07T02:13:46;2.43;;;1.60;;
16640;SDS011;8434;47.990;7.880;2023-08-07T02:16:32;1.83;;;1.60;;
16640;SDS011;8434;47.990;7.880;2023-08-07T02:19:20;3.20;;;1.40;;
16640;SDS011;8434;47.990;7.880;2023-08-07T02:22:06;1.73;;;1.20;;
16640;SDS011;8434;47.990;7.880;2023-08-07T02:24:51;1.60;;;1.43;;
16640;SDS011;8434;47.990;7.880;2023-08-07T02:27:36;2.27;;;1.30;;
16640;SDS011;8434;47.990;7.880;2023-08-07T02:30:25;3.37;;;1.80;;
16640;SDS011;8434;47.990;7.880;2023-08-07T02:33:10;2.63;;;1.67;;
16640;SDS011;8434;47.990;7.880;2023-08-07T02:35:56;2.67;;;1.37;;
16640;SDS011;8434;47.990;7.880;2023-08-07T02:38:41;1.90;;;1.50;;
16640;SDS011;8434;47.990;7.880;2023-08-07T02:41:27;1.93;;;1.50;;
16640;SDS011;8434;47.990;7.880;2023-08-07T02:44:12;3.47;;;1.50;;
16640;SDS011;8434;47.990;7.880;2023-08-07T02:46:59;2.97;;;1.60;;
16640;SDS011;8434;47.990;7.880;2023-08-07T02:49:44;2.10;;;1.37;;
16640;SDS011;8434;47.990;7.880;2023-08-07T02:52:30;4.43;;;1.50;;
16640;SDS011;8434;47.990;7.880;2023-08-07T02:55:15;3.77;;;1.50;;
16640;SDS011;8434;47.990;7.880;2023-08-07T02:58:00;2.57;;;1.47;;
16640;SDS011;8434;47.990;7.880;2023-08-07T03:00:46;2.60;;;1.43;;
16640;SDS011;8434;47.990;7.880;2023-08-07T03:03:33;2.40;;;1.53;;
16640;SDS011;8434;47.990;7.880;2023-08-07T03:06:18;2.60;;;1.37;;
16640;SDS011;8434;47.990;7.880;2023-08-07T03:09:04;1.80;;;1.40;;
16640;SDS011;8434;47.990;7.880;2023-08-07T03:11:49;2.30;;;1.60;;
16640;SDS011;8434;47.990;7.880;2023-08-07T03:14:35;2.43;;;1.30;;
16640;SDS011;8434;47.990;7.880;2023-08-07T03:17:20;1.60;;;1.30;;
16640;SDS011;8434;47.990;7.880;2023-08-07T03:20:08;1.87;;;1.40;;
16640;SDS011;8434;47.990;7.880;2023-08-07T03:22:53;4.00;;;1.43;;
16640;SDS011;8434;47.990;7.880;2023-08-07T03:25:39;2.43;;;1.87;;
16640;SDS011;8434;47.990;7.880;2023-08-07T03:28:24;6.03;;;1.77;;
16640;SDS011;8434;47.990;7.880;2023-08-07T03:31:10;2.17;;;1.47;;
16640;SDS011;8434;47.990;7.880;2023-08-07T03:33:55;2.30;;;1.30;;
16640;SDS011;8434;47.990;7.880;2023-08-07T03:36:42;3.33;;;1.80;;
16640;SDS011;8434;47.990;7.880;2023-08-07T03:39:27;4.20;;;1.73;;
16640;SDS011;8434;47.990;7.880;2023-08-07T03:42:13;1.97;;;1.13;;
16640;SDS011;8434;47.990;7.880;2023-08-07T03:45:01;2.10;;;1.40;;
16640;SDS011;8434;47.990;7.880;2023-08-07T03:47:47;5.13;;;1.60;;
16640;SDS011;8434;47.990;7.880;2023-08-07T03:50:34;5.97;;;1.87;;
16640;SDS011;8434;47.990;7.880;2023-08-07T03:53:23;2.40;;;1.60;;
16640;SDS011;8434;47.990;7.880;2023-08-07T03:56:08;9.33;;;2.80;;
16640;SDS011;8434;47.990;7.880;2023-08-07T03:58:54;3.03;;;1.43;;
16640;SDS011;8434;47.990;7.880;2023-08-07T04:01:42;4.53;;;1.53;;
16640;SDS011;8434;47.990;7.880;2023-08-07T04:04:27;4.30;;;1.73;;
16640;SDS011;8434;47.990;7.880;2023-08-07T04:07:13;2.30;;;1.33;;
16640;SDS011;8434;47.990;7.880;2023-08-07T04:10:00;3.40;;;1.23;;
16640;SDS011;8434;47.990;7.880;2023-08-07T04:12:45;3.17;;;1.60;;
16640;SDS011;8434;47.990;7.880;2023-08-07T04:15:31;2.27;;;1.50;;
16640;SDS011;8434;47.990;7.880;2023-08-07T04:18:21;3.43;;;1.63;;
16640;SDS011;8434;47.990;7.880;2023-08-07T04:21:07;1.90;;;1.40;;
16640;SDS011;8434;47.990;7.880;2023-08-07T04:23:52;1.50;;;1.33;;
16640;SDS011;8434;47.990;7.880;2023-08-07T04:26:39;2.90;;;1.47;;
16640;SDS011;8434;47.990;7.880;2023-08-07T04:29:24;3.47;;;1.70;;
16640;SDS011;8434;47.990;7.880;2023-08-07T04:32:10;2.17;;;1.70;;
16640;SDS011;8434;47.990;7.880;2023-08-07T04:34:55;4.10;;;1.53;;
16640;SDS011;8434;47.990;7.880;2023-08-07T04:37:41;2.67;;;1.40;;
16640;SDS011;8434;47.990;7.880;2023-08-07T04:40:26;2.30;;;1.37;;
16640;SDS011;8434;47.990;7.880;2023-08-07T04:43:13;2.80;;;1.80;;
16640;SDS011;8434;47.990;7.880;2023-08-07T04:45:59;3.73;;;1.87;;
16640;SDS011;8434;47.990;7.880;2023-08-07T04:48:45;3.83;;;1.67;;
16640;SDS011;8434;47.990;7.880;2023-08-07T04:51:31;1.73;;;1.40;;
16640;SDS011;8434;47.990;7.880;2023-08-07T04:54:16;2.80;;;1.40;;
16640;SDS011;8434;47.990;7.880;2023-08-07T04:57:03;3.80;;;1.60;;
16640;SDS011;8434;47.990;7.880;2023-08-07T04:59:50;4.40;;;2.47;;
16640;SDS011;8434;47.990;7.880;2023-08-07T05:02:35;2.73;;;1.73;;
16640;SDS011;8434;47.990;7.880;2023-08-07T05:05:20;3.47;;;2.00;;
16640;SDS011;8434;47.990;7.880;2023-08-07T05:08:07;2.80;;;1.77;;
16640;SDS011;8434;47.990;7.880;2023-08-07T05:10:52;7.63;;;2.20;;
16640;SDS011;8434;47.990;7.880;2023-08-07T05:13:38;1.83;;;1.50;;
16640;SDS011;8434;47.990;7.880;2023-08-07T05:16:24;3.43;;;1.60;;
16640;SDS011;8434;47.990;7.880;2023-08-07T05:19:10;2.13;;;1.30;;
16640;SDS011;8434;47.990;7.880;2023-08-07T05:21:55;4.37;;;1.90;;
16640;SDS011;8434;47.990;7.880;2023-08-07T05:24:41;2.67;;;1.70;;
16640;SDS011;8434;47.990;7.880;2023-08-07T05:27:27;2.70;;;1.47;;
16640;SDS011;8434;47.990;7.880;2023-08-07T05:30:13;3.20;;;1.60;;
16640;SDS011;8434;47.990;7.880;2023-08-07T05:33:00;2.63;;;1.50;;
16640;SDS011;8434;47.990;7.880;2023-08-07T05:35:45;1.93;;;1.57;;
16640;SDS011;8434;47.990;7.880;2023-08-07T05:38:31;2.00;;;1.43;;
16640;SDS011;8434;47.990;7.880;2023-08-07T05:41:16;4.27;;;1.60;;
16640;SDS011;8434;47.990;7.880;2023-08-07T05:44:02;2.63;;;1.47;;
16640;SDS011;8434;47.990;7.880;2023-08-07T05:46:47;2.93;;;1.90;;
16640;SDS011;8434;47.990;7.880;2023-08-07T05:49:34;1.60;;;1.40;;
16640;SDS011;8434;47.990;7.880;2023-08-07T05:52:20;1.73;;;1.47;;
16640;SDS011;8434;47.990;7.880;2023-08-07T05:55:05;3.33;;;1.43;;
16640;SDS011;8434;47.990;7.880;2023-08-07T05:57:51;1.50;;;1.30;;
16640;SDS011;8434;47.990;7.880;2023-08-07T06:00:37;3.53;;;1.67;;
16640;SDS011;8434;47.990;7.880;2023-08-07T06:03:22;2.13;;;1.20;;
16640;SDS011;8434;47.990;7.880;2023-08-07T06:06:09;1.50;;;1.23;;
16640;SDS011;8434;47.990;7.880;2023-08-07T06:08:54;3.03;;;1.47;;
16640;SDS011;8434;47.990;7.880;2023-08-07T06:11:40;1.40;;;1.10;;
16640;SDS011;8434;47.990;7.880;2023-08-07T06:14:25;1.93;;;1.40;;
16640;SDS011;8434;47.990;7.880;2023-08-07T06:17:11;2.83;;;1.40;;
16640;SDS011;8434;47.990;7.880;2023-08-07T06:19:56;3.40;;;1.70;;
16640;SDS011;8434;47.990;7.880;2023-08-07T06:22:44;4.17;;;1.63;;
16640;SDS011;8434;47.990;7.880;2023-08-07T06:25:29;2.20;;;1.27;;
16640;SDS011;8434;47.990;7.880;2023-08-07T06:28:15;3.63;;;1.33;;
16640;SDS011;8434;47.990;7.880;2023-08-07T06:31:00;1.30;;;1.20;;
16640;SDS011;8434;47.990;7.880;2023-08-07T06:33:46;2.40;;;1.33;;
16640;SDS011;8434;47.990;7.880;2023-08-07T06:36:31;1.97;;;1.33;;
16640;SDS011;8434;47.990;7.880;2023-08-07T06:39:18;2.80;;;1.20;;
16640;SDS011;8434;47.990;7.880;2023-08-07T06:42:04;1.73;;;1.17;;
16640;SDS011;8434;47.990;7.880;2023-08-07T06:44:53;1.40;;;1.20;;
16640;SDS011;8434;47.990;7.880;2023-08-07T06:47:38;1.80;;;1.30;;
16640;SDS011;8434;47.990;7.880;2023-08-07T06:50:24;2.10;;;1.20;;
16640;SDS011;8434;47.990;7.880;2023-08-07T06:53:09;3.40;;;1.50;;
16640;SDS011;8434;47.990;7.880;2023-08-07T06:55:56;3.27;;;1.10;;
16640;SDS011;8434;47.990;7.880;2023-08-07T06:58:41;2.50;;;1.57;;
16640;SDS011;8434;47.990;7.880;2023-08-07T07:01:27;1.53;;;1.20;;
16640;SDS011;8434;47.990;7.880;2023-08-07T07:04:13;3.60;;;1.13;;
16640;SDS011;8434;47.990;7.880;2023-08-07T07:06:58;2.17;;;1.53;;
16640;SDS011;8434;47.990;7.880;2023-08-07T07:09:44;1.87;;;1.17;;
16640;SDS011;8434;47.990;7.880;2023-08-07T07:12:31;2.30;;;1.20;;
16640;SDS011;8434;47.990;7.880;2023-08-07T07:15:16;2.37;;;1.43;;
16640;SDS011;8434;47.990;7.880;2023-08-07T07:21:12;1.90;;;1.47;;
16640;SDS011;8434;47.990;7.880;2023-08-07T07:23:58;2.23;;;1.30;;
16640;SDS011;8434;47.990;7.880;2023-08-07T07:26:43;2.33;;;1.10;;
16640;SDS011;8434;47.990;7.880;2023-08-07T07:29:30;1.20;;;1.00;;
16640;SDS011;8434;47.990;7.880;2023-08-07T07:32:15;1.43;;;1.07;;
16640;SDS011;8434;47.990;7.880;2023-08-07T07:35:01;1.40;;;1.30;;
16640;SDS011;8434;47.990;7.880;2023-08-07T07:37:46;1.20;;;1.10;;
16640;SDS011;8434;47.990;7.880;2023-08-07T07:40:32;1.43;;;1.00;;
16640;SDS011;8434;47.990;7.880;2023-08-07T07:43:19;2.70;;;1.10;;
16640;SDS011;8434;47.990;7.880;2023-08-07T07:46:05;4.17;;;1.30;;
16640;SDS011;8434;47.990;7.880;2023-08-07T07:48:51;1.60;;;1.10;;
16640;SDS011;8434;47.990;7.880;2023-08-07T07:51:36;2.27;;;1.10;;
16640;SDS011;8434;47.990;7.880;2023-08-07T07:54:22;8.40;;;2.50;;
16640;SDS011;8434;47.990;7.880;2023-08-07T07:57:07;2.03;;;1.10;;
16640;SDS011;8434;47.990;7.880;2023-08-07T07:59:52;4.20;;;1.57;;
16640;SDS011;8434;47.990;7.880;2023-08-07T08:02:39;2.37;;;1.23;;
16640;SDS011;8434;47.990;7.880;2023-08-07T08:05:27;3.00;;;1.20;;
16640;SDS011;8434;47.990;7.880;2023-08-07T08:08:12;3.50;;;1.00;;
16640;SDS011;8434;47.990;7.880;2023-08-07T08:10:57;3.30;;;2.07;;
16640;SDS011;8434;47.990;7.880;2023-08-07T08:13:43;1.63;;;1.33;;
16640;SDS011;8434;47.990;7.880;2023-08-07T08:16:28;1.83;;;1.37;;
16640;SDS011;8434;47.990;7.880;2023-08-07T08:19:15;2.73;;;1.07;;
16640;SDS011;8434;47.990;7.880;2023-08-07T08:22:01;1.90;;;1.17;;
16640;SDS011;8434;47.990;7.880;2023-08-07T08:24:46;2.57;;;1.20;;
16640;SDS011;8434;47.990;7.880;2023-08-07T08:27:32;2.27;;;1.13;;
16640;SDS011;8434;47.990;7.880;2023-08-07T08:30:18;1.50;;;1.40;;
16640;SDS011;8434;47.990;7.880;2023-08-07T08:33:03;3.43;;;1.10;;
16640;SDS011;8434;47.990;7.880;2023-08-07T08:35:51;1.57;;;1.17;;
16640;SDS011;8434;47.990;7.880;2023-08-07T08:38:36;1.17;;;1.03;;
16640;SDS011;8434;47.990;7.880;2023-08-07T08:41:22;1.53;;;1.10;;
16640;SDS011;8434;47.990;7.880;2023-08-07T08:44:08;1.50;;;1.10;;
16640;SDS011;8434;47.990;7.880;2023-08-07T08:46:55;1.40;;;0.93;;
16640;SDS011;8434;47.990;7.880;2023-08-07T08:49:45;3.10;;;1.37;;
16640;SDS011;8434;47.990;7.880;2023-08-07T08:52:34;3.57;;;1.57;;
16640;SDS011;8434;47.990;7.880;2023-08-07T08:55:21;2.67;;;1.10;;
16640;SDS011;8434;47.990;7.880;2023-08-07T08:58:06;3.70;;;1.37;;
16640;SDS011;8434;47.990;7.880;2023-08-07T09:00:52;3.47;;;1.37;;
16640;SDS011;8434;47.990;7.880;2023-08-07T09:03:38;1.67;;;1.50;;
16640;SDS011;8434;47.990;7.880;2023-08-07T09:06:23;2.10;;;1.57;;
16640;SDS011;8434;47.990;7.880;2023-08-07T09:09:10;1.83;;;1.33;;
16640;SDS011;8434;47.990;7.880;2023-08-07T09:11:57;2.27;;;1.23;;
16640;SDS011;8434;47.990;7.880;2023-08-07T09:14:43;1.50;;;1.10;;
16640;SDS011;8434;47.990;7.880;2023-08-07T09:17:31;5.70;;;1.50;;
16640;SDS011;8434;47.990;7.880;2023-08-07T09:20:16;2.43;;;1.10;;
16640;SDS011;8434;47.990;7.880;2023-08-07T09:23:03;4.47;;;1.40;;
16640;SDS011;8434;47.990;7.880;2023-08-07T09:25:55;3.65;;;1.10;;
16640;SDS011;8434;47.990;7.880;2023-08-07T09:28:43;2.75;;;0.93;;
16640;SDS011;8434;47.990;7.880;2023-08-07T09:31:29;2.10;;;1.08;;
16640;SDS011;8434;47.990;7.880;2023-08-07T09:34:19;2.17;;;1.23;;
16640;SDS011;8434;47.990;7.880;2023-08-07T09:37:05;2.17;;;0.98;;
16640;SDS011;8434;47.990;7.880;2023-08-07T09:39:50;1.88;;;1.00;;
16640;SDS011;8434;47.990;7.880;2023-08-07T09:42:37;1.08;;;0.90;;
16640;SDS011;8434;47.990;7.880;2023-08-07T09:45:23;3.10;;;1.30;;
16640;SDS011;8434;47.990;7.880;2023-08-07T09:48:09;1.00;;;0.90;;
16640;SDS011;8434;47.990;7.880;2023-08-07T09:50:58;1.85;;;1.05;;
16640;SDS011;8434;47.990;7.880;2023-08-07T09:53:44;1.60;;;1.20;;
16640;SDS011;8434;47.990;7.880;2023-08-07T09:56:32;1.88;;;0.93;;
16640;SDS011;8434;47.990;7.880;2023-08-07T09:59:19;1.17;;;0.90;;
16640;SDS011;8434;47.990;7.880;2023-08-07T10:02:05;2.45;;;1.00;;
16640;SDS011;8434;47.990;7.880;2023-08-07T10:04:50;1.35;;;1.02;;
16640;SDS011;8434;47.990;7.880;2023-08-07T10:07:38;1.50;;;1.17;;
16640;SDS011;8434;47.990;7.880;2023-08-07T10:10:24;2.33;;;1.08;;
16640;SDS011;8434;47.990;7.880;2023-08-07T10:13:10;2.47;;;1.17;;
16640;SDS011;8434;47.990;7.880;2023-08-07T10:15:59;2.67;;;1.20;;
16640;SDS011;8434;47.990;7.880;2023-08-07T10:18:44;2.83;;;1.40;;
16640;SDS011;8434;47.990;7.880;2023-08-07T10:21:30;2.57;;;1.10;;
16640;SDS011;8434;47.990;7.880;2023-08-07T10:24:15;2.13;;;1.33;;
16640;SDS011;8434;47.990;7.880;2023-08-07T10:27:01;1.83;;;1.27;;
16640;SDS011;8434;47.990;7.880;2023-08-07T10:29:47;1.77;;;1.10;;
16640;SDS011;8434;47.990;7.880;2023-08-07T10:32:35;3.43;;;1.50;;
16640;SDS011;8434;47.990;7.880;2023-08-07T10:35:24;1.70;;;1.05;;
16640;SDS011;8434;47.990;7.880;2023-08-07T10:38:10;2.10;;;1.13;;
16640;SDS011;8434;47.990;7.880;2023-08-07T10:41:00;1.85;;;1.13;;
16640;SDS011;8434;47.990;7.880;2023-08-07T10:43:46;1.42;;;0.82;;
16640;SDS011;8434;47.990;7.880;2023-08-07T10:46:46;1.63;;;1.10;;
16640;SDS011;8434;47.990;7.880;2023-08-07T10:49:36;3.72;;;1.17;;
16640;SDS011;8434;47.990;7.880;2023-08-07T10:52:22;2.55;;;0.90;;
16640;SDS011;8434;47.990;7.880;2023-08-07T10:55:12;1.45;;;1.10;;
16640;SDS011;8434;47.990;7.880;2023-08-07T10:57:59;1.58;;;1.10;;
16640;SDS011;8434;47.990;7.880;2023-08-07T11:00:44;1.50;;;1.00;;
16640;SDS011;8434;47.990;7.880;2023-08-07T11:03:30;1.40;;;1.10;;
16640;SDS011;8434;47.990;7.880;2023-08-07T11:06:25;1.20;;;1.05;;
16640;SDS011;8434;47.990;7.880;2023-08-07T11:09:11;1.35;;;1.25;;
16640;SDS011;8434;47.990;7.880;2023-08-07T11:11:56;1.10;;;1.00;;
16640;SDS011;8434;47.990;7.880;2023-08-07T11:14:42;2.00;;;1.00;;
16640;SDS011;8434;47.990;7.880;2023-08-07T11:17:29;3.08;;;1.15;;
16640;SDS011;8434;47.990;7.880;2023-08-07T11:20:17;1.13;;;1.02;;
16640;SDS011;8434;47.990;7.880;2023-08-07T11:23:05;2.50;;;1.30;;
16640;SDS011;8434;47.990;7.880;2023-08-07T11:25:51;1.80;;;1.17;;
16640;SDS011;8434;47.990;7.880;2023-08-07T11:28:37;1.42;;;1.10;;
16640;SDS011;8434;47.990;7.880;2023-08-07T11:31:23;2.35;;;0.95;;
16640;SDS011;8434;47.990;7.880;2023-08-07T11:34:10;2.83;;;1.25;;
16640;SDS011;8434;47.990;7.880;2023-08-07T11:36:55;2.40;;;1.20;;
16640;SDS011;8434;47.990;7.880;2023-08-07T11:39:43;0.95;;;0.80;;
16640;SDS011;8434;47.990;7.880;2023-08-07T11:42:29;2.70;;;1.00;;
16640;SDS011;8434;47.990;7.880;2023-08-07T11:45:14;1.10;;;0.93;;
16640;SDS011;8434;47.990;7.880;2023-08-07T11:48:00;1.20;;;1.00;;
16640;SDS011;8434;47.990;7.880;2023-08-07T11:50:46;3.97;;;1.05;;
16640;SDS011;8434;47.990;7.880;2023-08-07T11:53:33;2.40;;;1.08;;
16640;SDS011;8434;47.990;7.880;2023-08-07T11:56:22;1.42;;;1.20;;
16640;SDS011;8434;47.990;7.880;2023-08-07T11:59:07;0.70;;;0.70;;
16640;SDS011;8434;47.990;7.880;2023-08-07T12:01:53;1.20;;;0.95;;
16640;SDS011;8434;47.990;7.880;2023-08-07T12:04:39;1.40;;;0.98;;
16640;SDS011;8434;47.990;7.880;2023-08-07T12:07:25;0.82;;;0.80;;
16640;SDS011;8434;47.990;7.880;2023-08-07T12:10:11;1.23;;;1.00;;
16640;SDS011;8434;47.990;7.880;2023-08-07T12:12:59;2.28;;;1.10;;
16640;SDS011;8434;47.990;7.880;2023-08-07T12:15:46;2.20;;;1.58;;
16640;SDS011;8434;47.990;7.880;2023-08-07T12:18:31;1.30;;;1.00;;
16640;SDS011;8434;47.990;7.880;2023-08-07T12:21:17;1.80;;;1.10;;
16640;SDS011;8434;47.990;7.880;2023-08-07T12:24:04;1.50;;;1.00;;
16640;SDS011;8434;47.990;7.880;2023-08-07T12:26:51;1.67;;;1.20;;
16640;SDS011;8434;47.990;7.880;2023-08-07T12:29:38;1.40;;;1.20;;
16640;SDS011;8434;47.990;7.880;2023-08-07T12:32:23;2.17;;;1.20;;
16640;SDS011;8434;47.990;7.880;2023-08-07T12:35:09;0.98;;;0.90;;
16640;SDS011;8434;47.990;7.880;2023-08-07T12:37:55;2.03;;;0.82;;
16640;SDS011;8434;47.990;7.880;2023-08-07T12:40:40;0.90;;;0.80;;
16640;SDS011;8434;47.990;7.880;2023-08-07T12:43:26;1.83;;;0.90;;
16640;SDS011;8434;47.990;7.880;2023-08-07T12:46:12;1.15;;;0.88;;
16640;SDS011;8434;47.990;7.880;2023-08-07T12:48:58;1.27;;;0.77;;
16640;SDS011;8434;47.990;7.880;2023-08-07T12:51:44;1.13;;;0.80;;
16640;SDS011;8434;47.990;7.880;2023-08-07T12:54:29;1.80;;;0.88;;
16640;SDS011;8434;47.990;7.880;2023-08-07T12:57:15;2.47;;;0.95;;
16640;SDS011;8434;47.990;7.880;2023-08-07T13:00:00;2.70;;;1.30;;
16640;SDS011;8434;47.990;7.880;2023-08-07T13:02:47;1.80;;;1.00;;
16640;SDS011;8434;47.990;7.880;2023-08-07T13:05:33;1.98;;;1.00;;
16640;SDS011;8434;47.990;7.880;2023-08-07T13:08:18;1.50;;;0.90;;
16640;SDS011;8434;47.990;7.880;2023-08-07T13:11:04;1.10;;;1.00;;
16640;SDS011;8434;47.990;7.880;2023-08-07T13:13:50;1.90;;;1.00;;
16640;SDS011;8434;47.990;7.880;2023-08-07T13:16:35;1.25;;;1.00;;
16640;SDS011;8434;47.990;7.880;2023-08-07T13:19:22;1.52;;;1.02;;
16640;SDS011;8434;47.990;7.880;2023-08-07T13:22:08;1.25;;;0.90;;
16640;SDS011;8434;47.990;7.880;2023-08-07T13:24:53;1.10;;;0.80;;
16640;SDS011;8434;47.990;7.880;2023-08-07T13:27:39;1.00;;;0.90;;
16640;SDS011;8434;47.990;7.880;2023-08-07T13:30:25;1.55;;;1.10;;
16640;SDS011;8434;47.990;7.880;2023-08-07T13:33:10;0.85;;;0.82;;
16640;SDS011;8434;47.990;7.880;2023-08-07T13:35:57;0.82;;;0.82;;
16640;SDS011;8434;47.990;7.880;2023-08-07T13:38:42;2.30;;;1.58;;
16640;SDS011;8434;47.990;7.880;2023-08-07T13:41:28;1.10;;;1.00;;
16640;SDS011;8434;47.990;7.880;2023-08-07T13:44:13;1.58;;;1.10;;
16640;SDS011;8434;47.990;7.880;2023-08-07T13:46:58;1.10;;;0.93;;
16640;SDS011;8434;47.990;7.880;2023-08-07T13:49:44;1.58;;;0.80;;
16640;SDS011;8434;47.990;7.880;2023-08-07T13:52:31;0.88;;;0.77;;
16640;SDS011;8434;47.990;7.880;2023-08-07T13:55:16;2.30;;;1.10;;
16640;SDS011;8434;47.990;7.880;2023-08-07T13:58:02;2.15;;;1.00;;
16640;SDS011;8434;47.990;7.880;2023-08-07T14:00:48;1.27;;;0.90;;
16640;SDS011;8434;47.990;7.880;2023-08-07T14:03:33;1.25;;;1.15;;
16640;SDS011;8434;47.990;7.880;2023-08-07T14:06:19;1.55;;;0.90;;
16640;SDS011;8434;47.990;7.880;2023-08-07T14:09:06;2.20;;;0.90;;
16640;SDS011;8434;47.990;7.880;2023-08-07T14:11:53;1.40;;;1.00;;
16640;SDS011;8434;47.990;7.880;2023-08-07T14:14:39;1.53;;;0.90;;
16640;SDS011;8434;47.990;7.880;2023-08-07T14:17:25;1.37;;;0.90;;
16640;SDS011;8434;47.990;7.880;2023-08-07T14:20:10;1.30;;;0.90;;
16640;SDS011;8434;47.990;7.880;2023-08-07T14:22:56;1.67;;;0.67;;
16640;SDS011;8434;47.990;7.880;2023-08-07T14:25:42;1.05;;;0.80;;
16640;SDS011;8434;47.990;7.880;2023-08-07T14:28:28;1.85;;;0.75;;
16640;SDS011;8434;47.990;7.880;2023-08-07T14:31:14;4.03;;;1.20;;
16640;SDS011;8434;47.990;7.880;2023-08-07T14:33:59;2.25;;;0.80;;
16640;SDS011;8434;47.990;7.880;2023-08-07T14:36:45;0.80;;;0.77;;
16640;SDS011;8434;47.990;7.880;2023-08-07T14:39:30;0.52;;;0.52;;
16640;SDS011;8434;47.990;7.880;2023-08-07T14:42:17;0.83;;;0.80;;
16640;SDS011;8434;47.990;7.880;2023-08-07T14:45:02;2.47;;;0.83;;
16640;SDS011;8434;47.990;7.880;2023-08-07T14:47:48;2.03;;;0.80;;
16640;SDS011;8434;47.990;7.880;2023-08-07T14:50:33;0.80;;;0.80;;
16640;SDS011;8434;47.990;7.880;2023-08-07T14:53:19;0.98;;;0.77;;
16640;SDS011;8434;47.990;7.880;2023-08-07T14:56:05;0.90;;;0.70;;
16640;SDS011;8434;47.990;7.880;2023-08-07T14:58:53;1.05;;;0.80;;
16640;SDS011;8434;47.990;7.880;2023-08-07T15:01:38;1.40;;;1.00;;
16640;SDS011;8434;47.990;7.880;2023-08-07T15:04:24;2.45;;;0.80;;
16640;SDS011;8434;47.990;7.880;2023-08-07T15:07:09;1.98;;;0.80;;
16640;SDS011;8434;47.990;7.880;2023-08-07T15:09:55;3.88;;;1.45;;
16640;SDS011;8434;47.990;7.880;2023-08-07T15:12:40;1.35;;;0.70;;
16640;SDS011;8434;47.990;7.880;2023-08-07T15:15:28;1.63;;;0.93;;
16640;SDS011;8434;47.990;7.880;2023-08-07T15:18:14;1.35;;;0.80;;
16640;SDS011;8434;47.990;7.880;2023-08-07T15:20:59;0.63;;;0.63;;
16640;SDS011;8434;47.990;7.880;2023-08-07T15:23:45;0.83;;;0.60;;
16640;SDS011;8434;47.990;7.880;2023-08-07T15:26:31;1.35;;;0.90;;
16640;SDS011;8434;47.990;7.880;2023-08-07T15:29:16;1.40;;;0.80;;
16640;SDS011;8434;47.990;7.880;2023-08-07T15:32:04;1.77;;;0.80;;
16640;SDS011;8434;47.990;7.880;2023-08-07T15:34:49;0.73;;;0.70;;
16640;SDS011;8434;47.990;7.880;2023-08-07T15:37:36;1.07;;;0.70;;
16640;SDS011;8434;47.990;7.880;2023-08-07T15:40:22;0.70;;;0.70;;
16640;SDS011;8434;47.990;7.880;2023-08-07T15:43:07;0.87;;;0.70;;
16640;SDS011;8434;47.990;7.880;2023-08-07T15:45:53;1.70;;;1.00;;
16640;SDS011;8434;47.990;7.880;2023-08-07T15:48:40;1.10;;;0.80;;
16640;SDS011;8434;47.990;7.880;2023-08-07T15:51:25;1.17;;;0.90;;
16640;SDS011;8434;47.990;7.880;2023-08-07T15:54:10;3.50;;;0.83;;
16640;SDS011;8434;47.990;7.880;2023-08-07T15:56:56;0.97;;;0.67;;
16640;SDS011;8434;47.990;7.880;2023-08-07T15:59:42;0.70;;;0.70;;
16640;SDS011;8434;47.990;7.880;2023-08-07T16:02:27;14.18;;;1.02;;
16640;SDS011;8434;47.990;7.880;2023-08-07T16:05:14;0.73;;;0.70;;
16640;SDS011;8434;47.990;7.880;2023-08-07T16:07:59;1.53;;;0.70;;
16640;SDS011;8434;47.990;7.880;2023-08-07T16:10:45;0.60;;;0.60;;
16640;SDS011;8434;47.990;7.880;2023-08-07T16:13:30;1.20;;;0.87;;
16640;SDS011;8434;47.990;7.880;2023-08-07T16:16:16;1.63;;;0.93;;
16640;SDS011;8434;47.990;7.880;2023-08-07T16:19:01;1.48;;;1.27;;
16640;SDS011;8434;47.990;7.880;2023-08-07T16:21:48;1.43;;;0.93;;
16640;SDS011;8434;47.990;7.880;2023-08-07T16:24:33;0.80;;;0.70;;
16640;SDS011;8434;47.990;7.880;2023-08-07T16:27:19;1.90;;;0.97;;
16640;SDS011;8434;47.990;7.880;2023-08-07T16:30:05;1.70;;;0.97;;
16640;SDS011;8434;47.990;7.880;2023-08-07T16:32:51;1.30;;;0.90;;
16640;SDS011;8434;47.990;7.880;2023-08-07T16:35:36;1.60;;;1.07;;
16640;SDS011;8434;47.990;7.880;2023-08-07T16:38:23;1.20;;;0.90;;
16640;SDS011;8434;47.990;7.880;2023-08-07T16:41:08;3.13;;;1.07;;
16640;SDS011;8434;47.990;7.880;2023-08-07T16:43:53;1.63;;;0.70;;
16640;SDS011;8434;47.990;7.880;2023-08-07T16:46:39;0.90;;;0.80;;
16640;SDS011;8434;47.990;7.880;2023-08-07T16:49:24;1.23;;;0.87;;
16640;SDS011;8434;47.990;7.880;2023-08-07T16:52:10;1.73;;;1.03;;
16640;SDS011;8434;47.990;7.880;2023-08-07T16:54:57;0.83;;;0.83;;
16640;SDS011;8434;47.990;7.880;2023-08-07T16:57:42;1.30;;;0.90;;